sensor_id;sensor_type;location;lat;lon;timestamp;temperature;humidity
25906;DHT22;13713;52.552;13.204;2023-03-01T00:02:00;14.90;62.30
25906;DHT22;13713;52.552;13.204;2023-03-01T00:04:26;14.90;62.30
25906;DHT22;13713;52.552;13.204;2023-03-01T00:06:53;14.90;62.30
25906;DHT22;13713;52.552;13.204;2023-03-01T00:09:19;14.90;62.30
25906;DHT22;13713;52.552;13.204;2023-03-01T00:11:44;14.90;62.20
25906;DHT22;13713;52.552;13.204;2023-03-01T00:14:10;14.90;62.30
25906;DHT22;13713;52.552;13.204;2023-03-01T00:16:39;14.80;62.20
25906;DHT22;13713;52.552;13.204;2023-03-01T00:19:06;14.80;62.20
25906;DHT22;13713;52.552;13.204;2023-03-01T00:21:32;14.80;62.10
25906;DHT22;13713;52.552;13.204;2023-03-01T00:23:59;14.80;62.10
25906;DHT22;13713;52.552;13.204;2023-03-01T00:26:25;14.80;62.00
25906;DHT22;13713;52.552;13.204;2023-03-01T00:28:51;14.80;62.00
25906;DHT22;13713;52.552;13.204;2023-03-01T00:31:22;14.80;62.20
25906;DHT22;13713;52.552;13.204;2023-03-01T00:33:51;14.80;62.00
25906;DHT22;13713;52.552;13.204;2023-03-01T00:36:17;14.80;62.10
25906;DHT22;13713;52.552;13.204;2023-03-01T00:38:45;14.80;62.00
25906;DHT22;13713;52.552;13.204;2023-03-01T00:41:14;14.80;62.00
25906;DHT22;13713;52.552;13.204;2023-03-01T00:43:41;14.80;62.00
25906;DHT22;13713;52.552;13.204;2023-03-01T00:46:10;14.80;62.00
25906;DHT22;13713;52.552;13.204;2023-03-01T00:48:36;14.80;61.90
25906;DHT22;13713;52.552;13.204;2023-03-01T00:51:11;14.70;61.80
25906;DHT22;13713;52.552;13.204;2023-03-01T00:53:37;14.70;61.80
25906;DHT22;13713;52.552;13.204;2023-03-01T00:56:04;14.70;61.80
25906;DHT22;13713;52.552;13.204;2023-03-01T00:58:30;14.70;61.80
25906;DHT22;13713;52.552;13.204;2023-03-01T01:00:57;14.70;61.80
25906;DHT22;13713;52.552;13.204;2023-03-01T01:03:23;14.70;61.80
25906;DHT22;13713;52.552;13.204;2023-03-01T01:05:51;14.70;61.70
25906;DHT22;13713;52.552;13.204;2023-03-01T01:08:17;14.70;61.70
25906;DHT22;13713;52.552;13.204;2023-03-01T01:10:44;14.70;61.70
25906;DHT22;13713;52.552;13.204;2023-03-01T01:13:10;14.70;61.70
25906;DHT22;13713;52.552;13.204;2023-03-01T01:15:36;14.60;62.40
25906;DHT22;13713;52.552;13.204;2023-03-01T01:18:01;14.60;61.60
25906;DHT22;13713;52.552;13.204;2023-03-01T01:20:28;14.60;61.60
25906;DHT22;13713;52.552;13.204;2023-03-01T01:22:54;14.60;61.60
25906;DHT22;13713;52.552;13.204;2023-03-01T01:25:19;14.70;61.60
25906;DHT22;13713;52.552;13.204;2023-03-01T01:27:45;14.60;61.60
25906;DHT22;13713;52.552;13.204;2023-03-01T01:30:11;14.60;61.60
25906;DHT22;13713;52.552;13.204;2023-03-01T01:32:37;14.60;61.60
25906;DHT22;13713;52.552;13.204;2023-03-01T01:35:03;14.60;61.50
25906;DHT22;13713;52.552;13.204;2023-03-01T01:37:29;14.60;61.40
25906;DHT22;13713;52.552;13.204;2023-03-01T01:40:01;14.60;61.50
25906;DHT22;13713;52.552;13.204;2023-03-01T01:42:30;14.60;61.40
25906;DHT22;13713;52.552;13.204;2023-03-01T01:45:26;14.60;61.40
25906;DHT22;13713;52.552;13.204;2023-03-01T01:47:54;14.60;61.40
25906;DHT22;13713;52.552;13.204;2023-03-01T01:50:21;14.60;61.40
25906;DHT22;13713;52.552;13.204;2023-03-01T01:52:49;14.50;61.40
25906;DHT22;13713;52.552;13.204;2023-03-01T01:55:19;14.50;61.40
25906;DHT22;13713;52.552;13.204;2023-03-01T01:57:51;14.50;61.40
25906;DHT22;13713;52.552;13.204;2023-03-01T02:00:23;14.50;61.40
25906;DHT22;13713;52.552;13.204;2023-03-01T02:02:54;14.50;61.40
25906;DHT22;13713;52.552;13.204;2023-03-01T02:05:55;14.50;61.50
25906;DHT22;13713;52.552;13.204;2023-03-01T02:08:25;14.50;61.40
25906;DHT22;13713;52.552;13.204;2023-03-01T02:10:53;14.50;61.40
25906;DHT22;13713;52.552;13.204;2023-03-01T02:13:20;14.50;61.20
25906;DHT22;13713;52.552;13.204;2023-03-01T02:15:45;14.50;61.40
25906;DHT22;13713;52.552;13.204;2023-03-01T02:18:14;14.40;62.30
25906;DHT22;13713;52.552;13.204;2023-03-01T02:23:25;14.40;61.10
25906;DHT22;13713;52.552;13.204;2023-03-01T02:26:01;14.40;61.20
25906;DHT22;13713;52.552;13.204;2023-03-01T02:30:56;14.40;61.30
25906;DHT22;13713;52.552;13.204;2023-03-01T02:33:41;14.40;61.50
25906;DHT22;13713;52.552;13.204;2023-03-01T02:36:20;14.40;61.40
25906;DHT22;13713;52.552;13.204;2023-03-01T02:38:48;14.40;61.40
25906;DHT22;13713;52.552;13.204;2023-03-01T02:41:17;14.40;61.50
25906;DHT22;13713;52.552;13.204;2023-03-01T02:43:45;14.40;61.40
25906;DHT22;13713;52.552;13.204;2023-03-01T02:46:23;14.40;61.30
25906;DHT22;13713;52.552;13.204;2023-03-01T02:48:54;14.40;61.40
25906;DHT22;13713;52.552;13.204;2023-03-01T02:51:45;14.30;61.30
25906;DHT22;13713;52.552;13.204;2023-03-01T02:54:29;14.40;61.30
25906;DHT22;13713;52.552;13.204;2023-03-01T02:56:57;14.30;61.30
25906;DHT22;13713;52.552;13.204;2023-03-01T02:59:30;14.30;62.00
25906;DHT22;13713;52.552;13.204;2023-03-01T03:01:56;14.30;61.30
25906;DHT22;13713;52.552;13.204;2023-03-01T03:04:22;14.30;61.40
25906;DHT22;13713;52.552;13.204;2023-03-01T03:06:50;14.30;61.30
25906;DHT22;13713;52.552;13.204;2023-03-01T03:09:18;14.30;61.30
25906;DHT22;13713;52.552;13.204;2023-03-01T03:11:45;14.30;61.40
25906;DHT22;13713;52.552;13.204;2023-03-01T03:14:13;14.30;61.30
25906;DHT22;13713;52.552;13.204;2023-03-01T03:16:45;14.30;61.30
25906;DHT22;13713;52.552;13.204;2023-03-01T03:19:11;14.30;61.40
25906;DHT22;13713;52.552;13.204;2023-03-01T03:21:37;14.30;62.10
25906;DHT22;13713;52.552;13.204;2023-03-01T03:24:04;14.30;61.40
25906;DHT22;13713;52.552;13.204;2023-03-01T03:26:31;14.30;61.30
25906;DHT22;13713;52.552;13.204;2023-03-01T03:28:56;14.30;61.30
25906;DHT22;13713;52.552;13.204;2023-03-01T03:31:22;14.20;61.20
25906;DHT22;13713;52.552;13.204;2023-03-01T03:33:48;14.20;61.20
25906;DHT22;13713;52.552;13.204;2023-03-01T03:36:19;14.30;61.30
25906;DHT22;13713;52.552;13.204;2023-03-01T03:38:45;14.20;61.20
25906;DHT22;13713;52.552;13.204;2023-03-01T03:41:12;14.20;61.20
25906;DHT22;13713;52.552;13.204;2023-03-01T03:43:40;14.20;61.10
25906;DHT22;13713;52.552;13.204;2023-03-01T03:46:06;14.20;61.20
25906;DHT22;13713;52.552;13.204;2023-03-01T03:48:41;14.20;62.00
25906;DHT22;13713;52.552;13.204;2023-03-01T03:51:10;14.20;61.20
25906;DHT22;13713;52.552;13.204;2023-03-01T03:53:36;14.20;61.20
25906;DHT22;13713;52.552;13.204;2023-03-01T03:56:01;14.20;61.10
25906;DHT22;13713;52.552;13.204;2023-03-01T03:58:27;14.20;61.10
25906;DHT22;13713;52.552;13.204;2023-03-01T04:00:55;14.20;61.10
25906;DHT22;13713;52.552;13.204;2023-03-01T04:03:25;14.10;61.00
25906;DHT22;13713;52.552;13.204;2023-03-01T04:05:52;14.20;61.10
25906;DHT22;13713;52.552;13.204;2023-03-01T04:08:20;14.10;61.00
25906;DHT22;13713;52.552;13.204;2023-03-01T04:10:49;14.20;61.10
25906;DHT22;13713;52.552;13.204;2023-03-01T04:13:21;14.10;61.00
25906;DHT22;13713;52.552;13.204;2023-03-01T04:15:51;14.10;61.00
25906;DHT22;13713;52.552;13.204;2023-03-01T04:18:19;14.10;61.00
25906;DHT22;13713;52.552;13.204;2023-03-01T04:20:45;14.10;61.00
25906;DHT22;13713;52.552;13.204;2023-03-01T04:23:11;14.10;60.80
25906;DHT22;13713;52.552;13.204;2023-03-01T04:25:56;14.10;61.20
25906;DHT22;13713;52.552;13.204;2023-03-01T04:28:29;14.10;60.90
25906;DHT22;13713;52.552;13.204;2023-03-01T04:30:56;14.10;61.00
25906;DHT22;13713;52.552;13.204;2023-03-01T04:33:23;14.10;61.10
25906;DHT22;13713;52.552;13.204;2023-03-01T04:35:50;14.00;61.20
25906;DHT22;13713;52.552;13.204;2023-03-01T04:38:17;14.00;61.20
25906;DHT22;13713;52.552;13.204;2023-03-01T04:40:43;14.00;60.70
25906;DHT22;13713;52.552;13.204;2023-03-01T04:43:10;14.00;60.90
25906;DHT22;13713;52.552;13.204;2023-03-01T04:45:36;14.00;60.80
25906;DHT22;13713;52.552;13.204;2023-03-01T04:48:03;14.00;61.20
25906;DHT22;13713;52.552;13.204;2023-03-01T04:50:29;14.10;61.40
25906;DHT22;13713;52.552;13.204;2023-03-01T04:52:55;14.10;61.50
25906;DHT22;13713;52.552;13.204;2023-03-01T04:55:26;14.10;61.50
25906;DHT22;13713;52.552;13.204;2023-03-01T04:57:52;14.10;61.40
25906;DHT22;13713;52.552;13.204;2023-03-01T05:00:18;14.10;61.40
25906;DHT22;13713;52.552;13.204;2023-03-01T05:05:22;14.20;61.40
25906;DHT22;13713;52.552;13.204;2023-03-01T05:08:01;14.20;61.40
25906;DHT22;13713;52.552;13.204;2023-03-01T05:10:29;14.20;61.30
25906;DHT22;13713;52.552;13.204;2023-03-01T05:12:55;14.20;61.30
25906;DHT22;13713;52.552;13.204;2023-03-01T05:15:23;14.30;61.40
25906;DHT22;13713;52.552;13.204;2023-03-01T05:17:53;14.30;61.40
25906;DHT22;13713;52.552;13.204;2023-03-01T05:20:20;14.30;61.40
25906;DHT22;13713;52.552;13.204;2023-03-01T05:22:50;14.30;61.40
25906;DHT22;13713;52.552;13.204;2023-03-01T05:25:16;14.30;61.30
25906;DHT22;13713;52.552;13.204;2023-03-01T05:27:42;14.30;61.20
25906;DHT22;13713;52.552;13.204;2023-03-01T05:30:09;14.40;61.20
25906;DHT22;13713;52.552;13.204;2023-03-01T05:32:42;14.40;61.20
25906;DHT22;13713;52.552;13.204;2023-03-01T05:35:16;14.40;61.20
25906;DHT22;13713;52.552;13.204;2023-03-01T05:37:43;14.40;61.10
25906;DHT22;13713;52.552;13.204;2023-03-01T05:40:11;14.40;61.10
25906;DHT22;13713;52.552;13.204;2023-03-01T05:42:49;14.40;61.10
25906;DHT22;13713;52.552;13.204;2023-03-01T05:45:16;14.50;61.10
25906;DHT22;13713;52.552;13.204;2023-03-01T05:47:43;14.50;61.00
25906;DHT22;13713;52.552;13.204;2023-03-01T05:50:32;14.50;61.00
25906;DHT22;13713;52.552;13.204;2023-03-01T05:55:23;14.50;60.80
25906;DHT22;13713;52.552;13.204;2023-03-01T05:57:49;14.60;60.90
25906;DHT22;13713;52.552;13.204;2023-03-01T06:00:18;14.50;60.80
25906;DHT22;13713;52.552;13.204;2023-03-01T06:02:44;14.50;60.80
25906;DHT22;13713;52.552;13.204;2023-03-01T06:05:11;14.50;60.70
25906;DHT22;13713;52.552;13.204;2023-03-01T06:07:38;14.50;60.80
25906;DHT22;13713;52.552;13.204;2023-03-01T06:10:04;14.60;60.80
25906;DHT22;13713;52.552;13.204;2023-03-01T06:12:32;14.60;60.70
25906;DHT22;13713;52.552;13.204;2023-03-01T06:14:58;14.60;60.80
25906;DHT22;13713;52.552;13.204;2023-03-01T06:17:24;14.60;60.90
25906;DHT22;13713;52.552;13.204;2023-03-01T06:19:50;14.70;60.70
25906;DHT22;13713;52.552;13.204;2023-03-01T06:22:16;14.70;60.50
25906;DHT22;13713;52.552;13.204;2023-03-01T06:24:41;14.70;60.50
25906;DHT22;13713;52.552;13.204;2023-03-01T06:27:07;14.80;60.70
25906;DHT22;13713;52.552;13.204;2023-03-01T06:29:33;14.80;60.70
25906;DHT22;13713;52.552;13.204;2023-03-01T06:31:59;14.80;60.90
25906;DHT22;13713;52.552;13.204;2023-03-01T06:34:25;14.80;61.10
25906;DHT22;13713;52.552;13.204;2023-03-01T06:36:50;14.90;61.00
25906;DHT22;13713;52.552;13.204;2023-03-01T06:39:16;14.90;60.70
25906;DHT22;13713;52.552;13.204;2023-03-01T06:41:43;14.90;61.10
25906;DHT22;13713;52.552;13.204;2023-03-01T06:44:09;15.00;60.90
25906;DHT22;13713;52.552;13.204;2023-03-01T06:46:35;15.00;60.80
25906;DHT22;13713;52.552;13.204;2023-03-01T06:49:01;15.10;61.00
25906;DHT22;13713;52.552;13.204;2023-03-01T06:51:26;15.10;60.90
25906;DHT22;13713;52.552;13.204;2023-03-01T06:53:52;15.10;60.90
25906;DHT22;13713;52.552;13.204;2023-03-01T06:56:18;15.20;60.70
25906;DHT22;13713;52.552;13.204;2023-03-01T06:58:43;15.20;61.00
25906;DHT22;13713;52.552;13.204;2023-03-01T07:01:09;15.20;60.80
25906;DHT22;13713;52.552;13.204;2023-03-01T07:03:35;15.20;60.80
25906;DHT22;13713;52.552;13.204;2023-03-01T07:06:01;15.30;60.80
25906;DHT22;13713;52.552;13.204;2023-03-01T07:08:27;15.40;60.90
25906;DHT22;13713;52.552;13.204;2023-03-01T07:10:59;15.40;60.70
25906;DHT22;13713;52.552;13.204;2023-03-01T07:13:25;15.50;60.60
25906;DHT22;13713;52.552;13.204;2023-03-01T07:15:51;15.50;60.70
25906;DHT22;13713;52.552;13.204;2023-03-01T07:18:17;15.50;60.80
25906;DHT22;13713;52.552;13.204;2023-03-01T07:20:42;15.60;60.70
25906;DHT22;13713;52.552;13.204;2023-03-01T07:23:08;15.60;60.60
25906;DHT22;13713;52.552;13.204;2023-03-01T07:25:34;15.60;60.80
25906;DHT22;13713;52.552;13.204;2023-03-01T07:27:59;15.70;60.90
25906;DHT22;13713;52.552;13.204;2023-03-01T07:30:25;15.80;60.70
25906;DHT22;13713;52.552;13.204;2023-03-01T07:32:54;15.80;60.60
25906;DHT22;13713;52.552;13.204;2023-03-01T07:35:21;15.80;60.20
25906;DHT22;13713;52.552;13.204;2023-03-01T07:37:47;15.90;60.30
25906;DHT22;13713;52.552;13.204;2023-03-01T07:40:13;15.90;60.10
25906;DHT22;13713;52.552;13.204;2023-03-01T07:42:38;16.00;60.40
25906;DHT22;13713;52.552;13.204;2023-03-01T07:45:05;16.00;60.30
25906;DHT22;13713;52.552;13.204;2023-03-01T07:47:31;16.10;60.20
25906;DHT22;13713;52.552;13.204;2023-03-01T07:49:57;16.10;60.30
25906;DHT22;13713;52.552;13.204;2023-03-01T07:52:23;16.20;60.50
25906;DHT22;13713;52.552;13.204;2023-03-01T07:54:48;16.20;60.30
25906;DHT22;13713;52.552;13.204;2023-03-01T07:57:14;16.20;60.20
25906;DHT22;13713;52.552;13.204;2023-03-01T07:59:40;16.30;60.30
25906;DHT22;13713;52.552;13.204;2023-03-01T08:02:06;16.40;61.10
25906;DHT22;13713;52.552;13.204;2023-03-01T08:04:32;16.30;60.20
25906;DHT22;13713;52.552;13.204;2023-03-01T08:06:58;16.40;60.10
25906;DHT22;13713;52.552;13.204;2023-03-01T08:09:24;16.40;60.20
25906;DHT22;13713;52.552;13.204;2023-03-01T08:11:50;16.50;60.10
25906;DHT22;13713;52.552;13.204;2023-03-01T08:14:16;16.50;60.20
25906;DHT22;13713;52.552;13.204;2023-03-01T08:16:42;16.60;60.20
25906;DHT22;13713;52.552;13.204;2023-03-01T08:19:11;16.60;60.20
25906;DHT22;13713;52.552;13.204;2023-03-01T08:21:38;16.70;60.40
25906;DHT22;13713;52.552;13.204;2023-03-01T08:24:05;16.70;60.20
25906;DHT22;13713;52.552;13.204;2023-03-01T08:26:31;16.70;59.80
25906;DHT22;13713;52.552;13.204;2023-03-01T08:28:59;16.70;59.80
25906;DHT22;13713;52.552;13.204;2023-03-01T08:31:37;16.70;60.20
25906;DHT22;13713;52.552;13.204;2023-03-01T08:34:09;16.80;60.20
25906;DHT22;13713;52.552;13.204;2023-03-01T08:36:43;16.80;60.20
25906;DHT22;13713;52.552;13.204;2023-03-01T08:39:12;16.80;60.00
25906;DHT22;13713;52.552;13.204;2023-03-01T08:41:39;16.80;60.30
25906;DHT22;13713;52.552;13.204;2023-03-01T08:44:06;16.80;60.30
25906;DHT22;13713;52.552;13.204;2023-03-01T08:46:37;16.90;60.40
25906;DHT22;13713;52.552;13.204;2023-03-01T08:49:08;16.90;60.40
25906;DHT22;13713;52.552;13.204;2023-03-01T08:51:34;16.90;60.40
25906;DHT22;13713;52.552;13.204;2023-03-01T08:54:07;17.00;60.50
25906;DHT22;13713;52.552;13.204;2023-03-01T08:56:33;17.00;60.90
25906;DHT22;13713;52.552;13.204;2023-03-01T08:58:59;17.00;60.40
25906;DHT22;13713;52.552;13.204;2023-03-01T09:01:25;17.00;60.40
25906;DHT22;13713;52.552;13.204;2023-03-01T09:03:51;17.10;60.50
25906;DHT22;13713;52.552;13.204;2023-03-01T09:06:17;17.10;60.40
25906;DHT22;13713;52.552;13.204;2023-03-01T09:08:46;17.10;60.50
25906;DHT22;13713;52.552;13.204;2023-03-01T09:11:14;17.10;60.40
25906;DHT22;13713;52.552;13.204;2023-03-01T09:13:41;17.20;60.50
25906;DHT22;13713;52.552;13.204;2023-03-01T09:16:08;17.20;60.60
25906;DHT22;13713;52.552;13.204;2023-03-01T09:18:35;17.20;60.50
25906;DHT22;13713;52.552;13.204;2023-03-01T09:21:06;17.20;60.60
25906;DHT22;13713;52.552;13.204;2023-03-01T09:23:40;17.20;60.60
25906;DHT22;13713;52.552;13.204;2023-03-01T09:26:17;17.30;60.70
25906;DHT22;13713;52.552;13.204;2023-03-01T09:28:45;17.30;60.80
25906;DHT22;13713;52.552;13.204;2023-03-01T09:31:12;17.30;60.90
25906;DHT22;13713;52.552;13.204;2023-03-01T09:33:39;17.30;61.00
25906;DHT22;13713;52.552;13.204;2023-03-01T09:36:07;17.40;61.10
25906;DHT22;13713;52.552;13.204;2023-03-01T09:38:33;17.40;61.00
25906;DHT22;13713;52.552;13.204;2023-03-01T09:41:35;17.40;61.10
25906;DHT22;13713;52.552;13.204;2023-03-01T09:43:59;17.40;61.10
25906;DHT22;13713;52.552;13.204;2023-03-01T09:46:32;17.40;61.30
25906;DHT22;13713;52.552;13.204;2023-03-01T09:49:23;17.50;61.30
25906;DHT22;13713;52.552;13.204;2023-03-01T09:51:59;17.50;61.40
25906;DHT22;13713;52.552;13.204;2023-03-01T09:54:26;17.60;61.50
25906;DHT22;13713;52.552;13.204;2023-03-01T09:57:19;17.60;61.40
25906;DHT22;13713;52.552;13.204;2023-03-01T10:03:01;17.70;62.00
25906;DHT22;13713;52.552;13.204;2023-03-01T10:05:36;17.80;61.80
25906;DHT22;13713;52.552;13.204;2023-03-01T10:10:42;17.90;61.60
25906;DHT22;13713;52.552;13.204;2023-03-01T10:16:23;18.00;61.70
25906;DHT22;13713;52.552;13.204;2023-03-01T10:18:56;17.90;61.50
25906;DHT22;13713;52.552;13.204;2023-03-01T10:21:23;18.00;61.70
25906;DHT22;13713;52.552;13.204;2023-03-01T10:23:50;18.00;61.60
25906;DHT22;13713;52.552;13.204;2023-03-01T10:29:05;18.10;61.70
25906;DHT22;13713;52.552;13.204;2023-03-01T10:31:53;18.10;61.70
25906;DHT22;13713;52.552;13.204;2023-03-01T10:34:29;18.20;61.80
25906;DHT22;13713;52.552;13.204;2023-03-01T10:36:58;18.20;62.20
25906;DHT22;13713;52.552;13.204;2023-03-01T10:39:26;18.20;62.10
25906;DHT22;13713;52.552;13.204;2023-03-01T10:41:58;18.30;62.20
25906;DHT22;13713;52.552;13.204;2023-03-01T10:44:51;18.30;62.60
25906;DHT22;13713;52.552;13.204;2023-03-01T10:47:18;18.30;62.30
25906;DHT22;13713;52.552;13.204;2023-03-01T10:49:54;18.40;62.40
25906;DHT22;13713;52.552;13.204;2023-03-01T10:52:24;18.40;62.40
25906;DHT22;13713;52.552;13.204;2023-03-01T10:54:57;18.50;62.40
25906;DHT22;13713;52.552;13.204;2023-03-01T10:57:38;18.50;61.80
25906;DHT22;13713;52.552;13.204;2023-03-01T11:00:23;18.60;61.60
25906;DHT22;13713;52.552;13.204;2023-03-01T11:03:02;18.60;61.60
25906;DHT22;13713;52.552;13.204;2023-03-01T11:05:36;18.70;61.40
25906;DHT22;13713;52.552;13.204;2023-03-01T11:08:03;18.70;61.00
25906;DHT22;13713;52.552;13.204;2023-03-01T11:10:29;18.80;60.60
25906;DHT22;13713;52.552;13.204;2023-03-01T11:13:17;18.80;60.60
25906;DHT22;13713;52.552;13.204;2023-03-01T11:15:58;18.80;60.60
25906;DHT22;13713;52.552;13.204;2023-03-01T11:18:24;18.80;60.60
25906;DHT22;13713;52.552;13.204;2023-03-01T11:20:53;18.80;58.00
25906;DHT22;13713;52.552;13.204;2023-03-01T11:23:22;18.80;58.90
25906;DHT22;13713;52.552;13.204;2023-03-01T11:26:14;18.80;59.00
25906;DHT22;13713;52.552;13.204;2023-03-01T11:28:42;18.80;59.10
25906;DHT22;13713;52.552;13.204;2023-03-01T11:31:11;18.80;59.10
25906;DHT22;13713;52.552;13.204;2023-03-01T11:33:50;18.80;58.70
25906;DHT22;13713;52.552;13.204;2023-03-01T11:36:46;18.90;59.00
25906;DHT22;13713;52.552;13.204;2023-03-01T11:39:41;18.90;58.90
25906;DHT22;13713;52.552;13.204;2023-03-01T11:44:41;18.90;58.60
25906;DHT22;13713;52.552;13.204;2023-03-01T11:47:24;18.90;58.60
25906;DHT22;13713;52.552;13.204;2023-03-01T11:50:12;18.90;58.40
25906;DHT22;13713;52.552;13.204;2023-03-01T11:52:53;18.90;58.80
25906;DHT22;13713;52.552;13.204;2023-03-01T12:08:44;19.10;59.50
25906;DHT22;13713;52.552;13.204;2023-03-01T12:20:20;19.10;59.80
25906;DHT22;13713;52.552;13.204;2023-03-01T12:22:57;19.10;60.00
25906;DHT22;13713;52.552;13.204;2023-03-01T12:25:45;19.10;60.10
25906;DHT22;13713;52.552;13.204;2023-03-01T12:31:30;19.20;60.20
25906;DHT22;13713;52.552;13.204;2023-03-01T12:37:16;19.20;59.90
25906;DHT22;13713;52.552;13.204;2023-03-01T12:40:26;19.20;60.00
25906;DHT22;13713;52.552;13.204;2023-03-01T12:46:13;19.20;60.20
25906;DHT22;13713;52.552;13.204;2023-03-01T12:51:30;19.30;60.30
25906;DHT22;13713;52.552;13.204;2023-03-01T12:53:58;19.30;60.30
25906;DHT22;13713;52.552;13.204;2023-03-01T12:56:28;19.30;60.50
25906;DHT22;13713;52.552;13.204;2023-03-01T13:05:18;19.40;60.60
25906;DHT22;13713;52.552;13.204;2023-03-01T13:08:01;19.40;60.50
25906;DHT22;13713;52.552;13.204;2023-03-01T13:10:47;19.40;60.40
25906;DHT22;13713;52.552;13.204;2023-03-01T13:15:47;19.40;60.20
25906;DHT22;13713;52.552;13.204;2023-03-01T13:20:49;19.50;60.40
25906;DHT22;13713;52.552;13.204;2023-03-01T13:26:07;19.50;60.50
25906;DHT22;13713;52.552;13.204;2023-03-01T13:33:44;19.50;60.80
25906;DHT22;13713;52.552;13.204;2023-03-01T13:36:25;19.60;60.90
25906;DHT22;13713;52.552;13.204;2023-03-01T13:39:31;19.60;61.00
25906;DHT22;13713;52.552;13.204;2023-03-01T13:42:34;19.60;60.90
25906;DHT22;13713;52.552;13.204;2023-03-01T13:45:03;19.60;60.80
25906;DHT22;13713;52.552;13.204;2023-03-01T13:47:29;19.60;60.90
25906;DHT22;13713;52.552;13.204;2023-03-01T13:50:01;19.60;60.90
25906;DHT22;13713;52.552;13.204;2023-03-01T13:55:28;19.70;60.70
25906;DHT22;13713;52.552;13.204;2023-03-01T13:57:57;19.70;61.10
25906;DHT22;13713;52.552;13.204;2023-03-01T14:03:22;19.70;61.20
25906;DHT22;13713;52.552;13.204;2023-03-01T14:08:34;19.70;61.40
25906;DHT22;13713;52.552;13.204;2023-03-01T14:19:24;19.80;61.30
25906;DHT22;13713;52.552;13.204;2023-03-01T14:24:39;19.80;61.60
25906;DHT22;13713;52.552;13.204;2023-03-01T14:27:11;19.80;62.10
25906;DHT22;13713;52.552;13.204;2023-03-01T14:29:39;19.80;61.90
25906;DHT22;13713;52.552;13.204;2023-03-01T14:32:25;19.80;62.10
25906;DHT22;13713;52.552;13.204;2023-03-01T14:34:51;19.80;61.80
25906;DHT22;13713;52.552;13.204;2023-03-01T14:37:31;19.90;62.00
25906;DHT22;13713;52.552;13.204;2023-03-01T14:39:59;19.90;62.00
25906;DHT22;13713;52.552;13.204;2023-03-01T14:42:29;19.90;62.00
25906;DHT22;13713;52.552;13.204;2023-03-01T14:44:57;19.90;62.00
25906;DHT22;13713;52.552;13.204;2023-03-01T14:47:35;19.90;61.90
25906;DHT22;13713;52.552;13.204;2023-03-01T14:50:25;19.90;62.30
25906;DHT22;13713;52.552;13.204;2023-03-01T14:53:00;19.90;62.30
25906;DHT22;13713;52.552;13.204;2023-03-01T14:55:31;19.90;62.20
25906;DHT22;13713;52.552;13.204;2023-03-01T14:57:58;20.00;62.60
25906;DHT22;13713;52.552;13.204;2023-03-01T15:00:30;20.00;62.10
25906;DHT22;13713;52.552;13.204;2023-03-01T15:03:02;20.00;62.00
25906;DHT22;13713;52.552;13.204;2023-03-01T15:07:55;20.00;61.80
25906;DHT22;13713;52.552;13.204;2023-03-01T15:10:25;20.00;61.70
25906;DHT22;13713;52.552;13.204;2023-03-01T15:12:55;20.00;61.50
25906;DHT22;13713;52.552;13.204;2023-03-01T15:15:35;19.90;61.50
25906;DHT22;13713;52.552;13.204;2023-03-01T15:18:19;19.90;61.30
25906;DHT22;13713;52.552;13.204;2023-03-01T15:20:47;19.90;61.40
25906;DHT22;13713;52.552;13.204;2023-03-01T15:23:25;19.80;61.30
25906;DHT22;13713;52.552;13.204;2023-03-01T15:25:53;19.80;61.50
25906;DHT22;13713;52.552;13.204;2023-03-01T15:28:31;19.80;61.60
25906;DHT22;13713;52.552;13.204;2023-03-01T15:31:03;19.70;61.50
25906;DHT22;13713;52.552;13.204;2023-03-01T15:33:40;19.70;61.70
25906;DHT22;13713;52.552;13.204;2023-03-01T15:36:41;19.70;62.30
25906;DHT22;13713;52.552;13.204;2023-03-01T15:39:42;19.60;61.20
25906;DHT22;13713;52.552;13.204;2023-03-01T15:43:01;19.60;61.50
25906;DHT22;13713;52.552;13.204;2023-03-01T15:46:34;19.50;61.50
25906;DHT22;13713;52.552;13.204;2023-03-01T15:50:23;19.40;61.40
25906;DHT22;13713;52.552;13.204;2023-03-01T15:54:25;19.40;61.70
25906;DHT22;13713;52.552;13.204;2023-03-01T15:57:39;19.30;61.70
25906;DHT22;13713;52.552;13.204;2023-03-01T16:00:22;19.30;61.80
25906;DHT22;13713;52.552;13.204;2023-03-01T16:06:37;19.20;61.90
25906;DHT22;13713;52.552;13.204;2023-03-01T16:12:44;19.10;61.70
25906;DHT22;13713;52.552;13.204;2023-03-01T16:15:25;19.00;61.70
25906;DHT22;13713;52.552;13.204;2023-03-01T16:21:20;18.90;61.80
25906;DHT22;13713;52.552;13.204;2023-03-01T16:28:54;18.80;61.80
25906;DHT22;13713;52.552;13.204;2023-03-01T16:38:59;18.70;61.90
25906;DHT22;13713;52.552;13.204;2023-03-01T16:48:57;18.60;62.00
25906;DHT22;13713;52.552;13.204;2023-03-01T16:52:59;18.60;62.00
25906;DHT22;13713;52.552;13.204;2023-03-01T16:57:09;18.50;61.90
25906;DHT22;13713;52.552;13.204;2023-03-01T17:08:25;18.30;62.10
25906;DHT22;13713;52.552;13.204;2023-03-01T17:12:15;18.30;62.10
25906;DHT22;13713;52.552;13.204;2023-03-01T17:16:12;18.30;62.20
25906;DHT22;13713;52.552;13.204;2023-03-01T17:22:21;18.20;62.20
25906;DHT22;13713;52.552;13.204;2023-03-01T17:29:24;18.10;62.20
25906;DHT22;13713;52.552;13.204;2023-03-01T17:32:25;18.10;62.20
25906;DHT22;13713;52.552;13.204;2023-03-01T17:35:00;18.10;62.10
25906;DHT22;13713;52.552;13.204;2023-03-01T17:38:17;18.00;62.20
25906;DHT22;13713;52.552;13.204;2023-03-01T17:40:44;18.00;62.30
25906;DHT22;13713;52.552;13.204;2023-03-01T17:43:12;18.00;62.40
25906;DHT22;13713;52.552;13.204;2023-03-01T17:45:38;17.90;62.40
25906;DHT22;13713;52.552;13.204;2023-03-01T17:48:05;17.90;62.50
25906;DHT22;13713;52.552;13.204;2023-03-01T17:50:31;17.90;62.60
25906;DHT22;13713;52.552;13.204;2023-03-01T17:52:57;17.90;62.70
25906;DHT22;13713;52.552;13.204;2023-03-01T17:55:23;17.90;62.80
25906;DHT22;13713;52.552;13.204;2023-03-01T17:57:49;17.80;62.80
25906;DHT22;13713;52.552;13.204;2023-03-01T18:00:15;17.80;63.00
25906;DHT22;13713;52.552;13.204;2023-03-01T18:02:42;17.80;63.00
25906;DHT22;13713;52.552;13.204;2023-03-01T18:05:08;17.70;62.90
25906;DHT22;13713;52.552;13.204;2023-03-01T18:07:34;17.70;63.10
25906;DHT22;13713;52.552;13.204;2023-03-01T18:10:00;17.70;63.20
25906;DHT22;13713;52.552;13.204;2023-03-01T18:12:26;17.70;63.20
25906;DHT22;13713;52.552;13.204;2023-03-01T18:14:51;17.60;63.20
25906;DHT22;13713;52.552;13.204;2023-03-01T18:17:22;17.60;63.30